sensor_id;sensor_type;location;lat;lon;timestamp;temperature;humidity
41965;DHT22;50120;53.250;8.702;2022-07-09T00:00:24;13.30;99.90
41965;DHT22;50120;53.250;8.702;2022-07-09T00:02:50;13.30;99.90
41965;DHT22;50120;53.250;8.702;2022-07-09T00:05:16;13.30;99.90
41965;DHT22;50120;53.250;8.702;2022-07-09T00:07:42;13.30;99.90
41965;DHT22;50120;53.250;8.702;2022-07-09T00:10:07;13.20;99.90
41965;DHT22;50120;53.250;8.702;2022-07-09T00:12:33;13.20;99.90
41965;DHT22;50120;53.250;8.702;2022-07-09T00:14:59;13.20;99.90
41965;DHT22;50120;53.250;8.702;2022-07-09T00:17:25;13.20;99.90
41965;DHT22;50120;53.250;8.702;2022-07-09T00:19:52;13.30;99.90
41965;DHT22;50120;53.250;8.702;2022-07-09T00:22:18;13.30;99.90
41965;DHT22;50120;53.250;8.702;2022-07-09T00:24:44;13.30;99.90
41965;DHT22;50120;53.250;8.702;2022-07-09T00:27:09;13.30;99.90
41965;DHT22;50120;53.250;8.702;2022-07-09T00:29:35;13.30;99.90
41965;DHT22;50120;53.250;8.702;2022-07-09T00:32:01;13.30;99.90
41965;DHT22;50120;53.250;8.702;2022-07-09T00:34:29;13.30;99.90
41965;DHT22;50120;53.250;8.702;2022-07-09T00:36:55;13.20;99.90
41965;DHT22;50120;53.250;8.702;2022-07-09T00:39:21;13.20;99.90
41965;DHT22;50120;53.250;8.702;2022-07-09T00:41:47;13.20;99.90
41965;DHT22;50120;53.250;8.702;2022-07-09T00:44:12;13.20;99.90
41965;DHT22;50120;53.250;8.702;2022-07-09T00:46:38;13.20;99.90
41965;DHT22;50120;53.250;8.702;2022-07-09T00:49:06;13.20;99.90
41965;DHT22;50120;53.250;8.702;2022-07-09T00:51:32;13.20;99.90
41965;DHT22;50120;53.250;8.702;2022-07-09T00:54:00;13.10;99.90
41965;DHT22;50120;53.250;8.702;2022-07-09T00:56:28;13.10;99.90
41965;DHT22;50120;53.250;8.702;2022-07-09T00:58:55;13.10;99.90
41965;DHT22;50120;53.250;8.702;2022-07-09T01:01:22;13.10;99.90
41965;DHT22;50120;53.250;8.702;2022-07-09T01:03:48;13.10;99.90
41965;DHT22;50120;53.250;8.702;2022-07-09T01:06:15;13.10;99.90
41965;DHT22;50120;53.250;8.702;2022-07-09T01:08:41;13.10;99.90
41965;DHT22;50120;53.250;8.702;2022-07-09T01:11:07;13.10;99.90
41965;DHT22;50120;53.250;8.702;2022-07-09T01:13:32;13.10;99.90
41965;DHT22;50120;53.250;8.702;2022-07-09T01:15:58;13.00;99.90
41965;DHT22;50120;53.250;8.702;2022-07-09T01:18:24;13.00;99.90
41965;DHT22;50120;53.250;8.702;2022-07-09T01:20:50;13.00;99.90
41965;DHT22;50120;53.250;8.702;2022-07-09T01:23:17;13.00;99.90
41965;DHT22;50120;53.250;8.702;2022-07-09T01:25:44;13.00;99.90
41965;DHT22;50120;53.250;8.702;2022-07-09T01:28:10;13.00;99.90
41965;DHT22;50120;53.250;8.702;2022-07-09T01:30:38;13.00;99.90
41965;DHT22;50120;53.250;8.702;2022-07-09T01:33:04;13.00;99.90
41965;DHT22;50120;53.250;8.702;2022-07-09T01:35:29;13.10;99.90
41965;DHT22;50120;53.250;8.702;2022-07-09T01:37:56;13.10;99.90
41965;DHT22;50120;53.250;8.702;2022-07-09T01:40:22;13.10;99.90
41965;DHT22;50120;53.250;8.702;2022-07-09T01:42:48;13.10;99.90
41965;DHT22;50120;53.250;8.702;2022-07-09T01:45:15;13.10;99.90
41965;DHT22;50120;53.250;8.702;2022-07-09T01:47:41;13.10;99.90
41965;DHT22;50120;53.250;8.702;2022-07-09T01:50:08;13.10;99.90
41965;DHT22;50120;53.250;8.702;2022-07-09T01:52:34;13.10;99.90
41965;DHT22;50120;53.250;8.702;2022-07-09T01:54:59;13.10;99.90
41965;DHT22;50120;53.250;8.702;2022-07-09T01:57:26;13.10;99.90
41965;DHT22;50120;53.250;8.702;2022-07-09T01:59:52;13.10;99.90
41965;DHT22;50120;53.250;8.702;2022-07-09T02:02:19;13.10;99.90
41965;DHT22;50120;53.250;8.702;2022-07-09T02:04:46;13.10;99.90
41965;DHT22;50120;53.250;8.702;2022-07-09T02:07:13;13.00;99.90
41965;DHT22;50120;53.250;8.702;2022-07-09T02:09:39;13.10;99.90
41965;DHT22;50120;53.250;8.702;2022-07-09T02:12:05;13.10;99.90
41965;DHT22;50120;53.250;8.702;2022-07-09T02:14:31;13.10;99.90
41965;DHT22;50120;53.250;8.702;2022-07-09T02:16:58;13.10;99.90
41965;DHT22;50120;53.250;8.702;2022-07-09T02:19:23;13.10;99.90
41965;DHT22;50120;53.250;8.702;2022-07-09T02:21:49;13.10;99.90
41965;DHT22;50120;53.250;8.702;2022-07-09T02:24:15;13.20;99.90
41965;DHT22;50120;53.250;8.702;2022-07-09T02:26:41;13.10;99.90
41965;DHT22;50120;53.250;8.702;2022-07-09T02:29:07;13.20;99.90
41965;DHT22;50120;53.250;8.702;2022-07-09T02:31:33;13.20;99.90
41965;DHT22;50120;53.250;8.702;2022-07-09T02:33:58;13.20;99.90
41965;DHT22;50120;53.250;8.702;2022-07-09T02:36:24;13.20;99.90
41965;DHT22;50120;53.250;8.702;2022-07-09T02:38:50;13.30;99.90
41965;DHT22;50120;53.250;8.702;2022-07-09T02:41:15;13.30;99.90
41965;DHT22;50120;53.250;8.702;2022-07-09T02:43:41;13.30;99.90
41965;DHT22;50120;53.250;8.702;2022-07-09T02:46:10;13.30;99.90
41965;DHT22;50120;53.250;8.702;2022-07-09T02:48:37;13.40;99.90
41965;DHT22;50120;53.250;8.702;2022-07-09T02:51:03;13.40;99.90
41965;DHT22;50120;53.250;8.702;2022-07-09T02:53:29;13.40;99.90
41965;DHT22;50120;53.250;8.702;2022-07-09T02:55:54;13.50;99.90
41965;DHT22;50120;53.250;8.702;2022-07-09T02:58:21;13.40;99.90
41965;DHT22;50120;53.250;8.702;2022-07-09T03:00:47;13.50;99.90
41965;DHT22;50120;53.250;8.702;2022-07-09T03:03:16;13.50;99.90
41965;DHT22;50120;53.250;8.702;2022-07-09T03:05:42;13.60;99.90
41965;DHT22;50120;53.250;8.702;2022-07-09T03:08:08;13.60;99.90
41965;DHT22;50120;53.250;8.702;2022-07-09T03:10:34;13.60;99.90
41965;DHT22;50120;53.250;8.702;2022-07-09T03:13:00;13.60;99.90
41965;DHT22;50120;53.250;8.702;2022-07-09T03:15:26;13.70;99.90
41965;DHT22;50120;53.250;8.702;2022-07-09T03:17:52;13.70;99.90
41965;DHT22;50120;53.250;8.702;2022-07-09T03:20:18;13.70;99.90
41965;DHT22;50120;53.250;8.702;2022-07-09T03:22:43;13.80;99.90
41965;DHT22;50120;53.250;8.702;2022-07-09T03:25:09;13.90;99.90
41965;DHT22;50120;53.250;8.702;2022-07-09T03:27:35;13.80;99.90
41965;DHT22;50120;53.250;8.702;2022-07-09T03:30:02;13.90;99.90
41965;DHT22;50120;53.250;8.702;2022-07-09T03:32:28;13.90;99.90
41965;DHT22;50120;53.250;8.702;2022-07-09T03:34:54;13.80;99.90
41965;DHT22;50120;53.250;8.702;2022-07-09T03:37:20;13.80;99.90
41965;DHT22;50120;53.250;8.702;2022-07-09T03:39:46;13.80;99.90
41965;DHT22;50120;53.250;8.702;2022-07-09T03:42:12;13.80;99.90
41965;DHT22;50120;53.250;8.702;2022-07-09T03:44:39;13.90;99.90
41965;DHT22;50120;53.250;8.702;2022-07-09T03:47:05;13.80;99.90
41965;DHT22;50120;53.250;8.702;2022-07-09T03:49:31;13.80;99.90
41965;DHT22;50120;53.250;8.702;2022-07-09T03:51:58;13.90;99.90
41965;DHT22;50120;53.250;8.702;2022-07-09T03:54:24;13.90;99.90
41965;DHT22;50120;53.250;8.702;2022-07-09T03:56:50;13.90;99.90
41965;DHT22;50120;53.250;8.702;2022-07-09T03:59:16;13.90;99.90
41965;DHT22;50120;53.250;8.702;2022-07-09T04:01:42;14.00;99.90
41965;DHT22;50120;53.250;8.702;2022-07-09T04:04:08;14.00;99.90
41965;DHT22;50120;53.250;8.702;2022-07-09T04:06:34;14.00;99.90
41965;DHT22;50120;53.250;8.702;2022-07-09T04:09:01;14.00;99.90
41965;DHT22;50120;53.250;8.702;2022-07-09T04:11:30;14.00;99.90
41965;DHT22;50120;53.250;8.702;2022-07-09T04:13:56;14.10;99.90
41965;DHT22;50120;53.250;8.702;2022-07-09T04:16:22;14.10;99.90
41965;DHT22;50120;53.250;8.702;2022-07-09T04:18:48;14.10;99.90
41965;DHT22;50120;53.250;8.702;2022-07-09T04:21:14;14.10;99.90
41965;DHT22;50120;53.250;8.702;2022-07-09T04:23:39;14.20;99.90
41965;DHT22;50120;53.250;8.702;2022-07-09T04:26:06;14.20;99.90
41965;DHT22;50120;53.250;8.702;2022-07-09T04:28:36;14.20;99.90
41965;DHT22;50120;53.250;8.702;2022-07-09T04:31:02;14.30;99.90
41965;DHT22;50120;53.250;8.702;2022-07-09T04:33:28;14.30;99.90
41965;DHT22;50120;53.250;8.702;2022-07-09T04:35:54;14.40;99.90
41965;DHT22;50120;53.250;8.702;2022-07-09T04:38:19;14.40;99.90
41965;DHT22;50120;53.250;8.702;2022-07-09T04:40:45;14.40;99.90
41965;DHT22;50120;53.250;8.702;2022-07-09T04:43:11;14.40;99.90
41965;DHT22;50120;53.250;8.702;2022-07-09T04:45:36;14.50;99.90
41965;DHT22;50120;53.250;8.702;2022-07-09T04:48:02;14.50;99.90
41965;DHT22;50120;53.250;8.702;2022-07-09T04:50:28;14.50;99.90
41965;DHT22;50120;53.250;8.702;2022-07-09T04:52:54;14.50;99.90
41965;DHT22;50120;53.250;8.702;2022-07-09T04:55:20;14.60;99.90
41965;DHT22;50120;53.250;8.702;2022-07-09T04:57:46;14.60;99.90
41965;DHT22;50120;53.250;8.702;2022-07-09T05:00:13;14.60;99.90
41965;DHT22;50120;53.250;8.702;2022-07-09T05:02:39;14.70;99.90
41965;DHT22;50120;53.250;8.702;2022-07-09T05:05:05;14.70;99.90
41965;DHT22;50120;53.250;8.702;2022-07-09T05:07:34;14.80;99.90
41965;DHT22;50120;53.250;8.702;2022-07-09T05:10:00;14.80;99.90
41965;DHT22;50120;53.250;8.702;2022-07-09T05:12:27;14.80;99.90
41965;DHT22;50120;53.250;8.702;2022-07-09T05:14:53;14.90;99.90
41965;DHT22;50120;53.250;8.702;2022-07-09T05:17:18;14.90;99.90
41965;DHT22;50120;53.250;8.702;2022-07-09T05:19:44;14.90;99.90
41965;DHT22;50120;53.250;8.702;2022-07-09T05:22:10;14.90;99.90
41965;DHT22;50120;53.250;8.702;2022-07-09T05:24:36;15.00;99.90
41965;DHT22;50120;53.250;8.702;2022-07-09T05:27:01;15.00;99.90
41965;DHT22;50120;53.250;8.702;2022-07-09T05:29:27;15.00;99.90
41965;DHT22;50120;53.250;8.702;2022-07-09T05:31:53;15.10;99.90
41965;DHT22;50120;53.250;8.702;2022-07-09T05:34:19;15.10;99.90
41965;DHT22;50120;53.250;8.702;2022-07-09T05:36:44;15.10;99.90
41965;DHT22;50120;53.250;8.702;2022-07-09T05:39:10;15.20;99.90
41965;DHT22;50120;53.250;8.702;2022-07-09T05:41:36;15.20;99.90
41965;DHT22;50120;53.250;8.702;2022-07-09T05:44:02;15.20;99.90
41965;DHT22;50120;53.250;8.702;2022-07-09T05:46:29;15.20;99.90
41965;DHT22;50120;53.250;8.702;2022-07-09T05:48:55;15.30;99.90
41965;DHT22;50120;53.250;8.702;2022-07-09T05:51:21;15.30;99.90
41965;DHT22;50120;53.250;8.702;2022-07-09T05:53:47;15.30;99.90
41965;DHT22;50120;53.250;8.702;2022-07-09T05:56:13;15.30;99.90
41965;DHT22;50120;53.250;8.702;2022-07-09T05:58:39;15.40;99.90
41965;DHT22;50120;53.250;8.702;2022-07-09T06:01:05;15.40;99.90
41965;DHT22;50120;53.250;8.702;2022-07-09T06:03:31;15.40;99.90
41965;DHT22;50120;53.250;8.702;2022-07-09T06:05:57;15.50;99.90
41965;DHT22;50120;53.250;8.702;2022-07-09T06:08:23;15.50;99.90
41965;DHT22;50120;53.250;8.702;2022-07-09T06:10:50;15.60;99.90
41965;DHT22;50120;53.250;8.702;2022-07-09T06:13:16;15.60;99.90
41965;DHT22;50120;53.250;8.702;2022-07-09T06:15:42;15.60;99.90
41965;DHT22;50120;53.250;8.702;2022-07-09T06:18:08;15.70;99.90
41965;DHT22;50120;53.250;8.702;2022-07-09T06:20:33;15.70;99.90
41965;DHT22;50120;53.250;8.702;2022-07-09T06:22:59;15.70;99.90
41965;DHT22;50120;53.250;8.702;2022-07-09T06:25:25;15.80;99.90
41965;DHT22;50120;53.250;8.702;2022-07-09T06:27:51;15.90;99.90
41965;DHT22;50120;53.250;8.702;2022-07-09T06:30:17;15.90;99.90
41965;DHT22;50120;53.250;8.702;2022-07-09T06:32:42;16.00;99.90
41965;DHT22;50120;53.250;8.702;2022-07-09T06:35:08;16.00;99.90
41965;DHT22;50120;53.250;8.702;2022-07-09T06:37:34;16.10;99.90
41965;DHT22;50120;53.250;8.702;2022-07-09T06:40:00;16.10;99.90
41965;DHT22;50120;53.250;8.702;2022-07-09T06:42:26;16.20;99.90
41965;DHT22;50120;53.250;8.702;2022-07-09T06:44:52;16.20;99.90
41965;DHT22;50120;53.250;8.702;2022-07-09T06:47:18;16.30;99.90
41965;DHT22;50120;53.250;8.702;2022-07-09T06:49:43;16.30;99.90
41965;DHT22;50120;53.250;8.702;2022-07-09T06:52:09;16.30;99.90
41965;DHT22;50120;53.250;8.702;2022-07-09T06:54:35;16.40;99.90
41965;DHT22;50120;53.250;8.702;2022-07-09T06:57:02;16.40;99.90
41965;DHT22;50120;53.250;8.702;2022-07-09T06:59:28;16.40;99.90
41965;DHT22;50120;53.250;8.702;2022-07-09T07:01:54;16.40;99.90
41965;DHT22;50120;53.250;8.702;2022-07-09T07:04:20;16.40;99.90
41965;DHT22;50120;53.250;8.702;2022-07-09T07:06:48;16.40;99.90
41965;DHT22;50120;53.250;8.702;2022-07-09T07:09:15;16.50;99.90
41965;DHT22;50120;53.250;8.702;2022-07-09T07:11:49;16.50;99.90
41965;DHT22;50120;53.250;8.702;2022-07-09T07:14:15;16.50;99.90
41965;DHT22;50120;53.250;8.702;2022-07-09T07:16:42;16.50;99.90
41965;DHT22;50120;53.250;8.702;2022-07-09T07:19:08;16.50;99.90
41965;DHT22;50120;53.250;8.702;2022-07-09T07:21:34;16.60;99.90
41965;DHT22;50120;53.250;8.702;2022-07-09T07:24:00;16.70;99.90
41965;DHT22;50120;53.250;8.702;2022-07-09T07:26:25;16.70;99.90
41965;DHT22;50120;53.250;8.702;2022-07-09T07:28:51;16.80;99.90
41965;DHT22;50120;53.250;8.702;2022-07-09T07:31:17;16.90;99.90
41965;DHT22;50120;53.250;8.702;2022-07-09T07:33:43;16.90;99.90
41965;DHT22;50120;53.250;8.702;2022-07-09T07:36:08;17.00;99.90
41965;DHT22;50120;53.250;8.702;2022-07-09T07:38:34;17.00;99.90
41965;DHT22;50120;53.250;8.702;2022-07-09T07:41:00;17.10;99.90
41965;DHT22;50120;53.250;8.702;2022-07-09T07:43:26;17.00;99.90
41965;DHT22;50120;53.250;8.702;2022-07-09T07:45:52;17.10;99.90
41965;DHT22;50120;53.250;8.702;2022-07-09T07:48:18;17.10;99.90
41965;DHT22;50120;53.250;8.702;2022-07-09T07:50:44;17.20;99.90
41965;DHT22;50120;53.250;8.702;2022-07-09T07:53:10;17.30;99.90
41965;DHT22;50120;53.250;8.702;2022-07-09T07:55:35;17.30;99.90
41965;DHT22;50120;53.250;8.702;2022-07-09T07:58:01;17.30;99.90
41965;DHT22;50120;53.250;8.702;2022-07-09T08:00:27;17.30;99.90
41965;DHT22;50120;53.250;8.702;2022-07-09T08:02:53;17.40;99.90
41965;DHT22;50120;53.250;8.702;2022-07-09T08:05:19;17.50;99.90
41965;DHT22;50120;53.250;8.702;2022-07-09T08:07:44;17.50;99.90
41965;DHT22;50120;53.250;8.702;2022-07-09T08:10:10;17.60;99.90
41965;DHT22;50120;53.250;8.702;2022-07-09T08:12:36;17.70;99.90
41965;DHT22;50120;53.250;8.702;2022-07-09T08:15:02;17.80;99.90
41965;DHT22;50120;53.250;8.702;2022-07-09T08:17:27;17.80;99.90
41965;DHT22;50120;53.250;8.702;2022-07-09T08:19:53;17.90;99.90
41965;DHT22;50120;53.250;8.702;2022-07-09T08:22:19;17.90;99.90
41965;DHT22;50120;53.250;8.702;2022-07-09T08:24:45;17.90;99.90
41965;DHT22;50120;53.250;8.702;2022-07-09T08:27:10;17.80;99.90
41965;DHT22;50120;53.250;8.702;2022-07-09T08:29:36;17.80;99.90
41965;DHT22;50120;53.250;8.702;2022-07-09T08:32:03;17.90;99.90
41965;DHT22;50120;53.250;8.702;2022-07-09T08:34:30;17.90;99.90
41965;DHT22;50120;53.250;8.702;2022-07-09T08:36:55;18.00;99.90
41965;DHT22;50120;53.250;8.702;2022-07-09T08:39:21;18.10;99.90
41965;DHT22;50120;53.250;8.702;2022-07-09T08:41:47;18.30;99.90
41965;DHT22;50120;53.250;8.702;2022-07-09T08:44:13;18.50;99.90
41965;DHT22;50120;53.250;8.702;2022-07-09T08:46:39;18.60;99.90
41965;DHT22;50120;53.250;8.702;2022-07-09T08:49:07;18.70;99.90
41965;DHT22;50120;53.250;8.702;2022-07-09T08:51:34;18.70;99.90
41965;DHT22;50120;53.250;8.702;2022-07-09T08:54:00;18.70;99.90
41965;DHT22;50120;53.250;8.702;2022-07-09T08:56:26;18.70;99.90
41965;DHT22;50120;53.250;8.702;2022-07-09T08:58:52;18.60;99.90
41965;DHT22;50120;53.250;8.702;2022-07-09T09:01:18;18.50;99.90
41965;DHT22;50120;53.250;8.702;2022-07-09T09:03:44;18.40;99.90
41965;DHT22;50120;53.250;8.702;2022-07-09T09:06:11;18.40;99.90
41965;DHT22;50120;53.250;8.702;2022-07-09T09:08:42;18.30;99.90
41965;DHT22;50120;53.250;8.702;2022-07-09T09:13:47;18.30;99.90
41965;DHT22;50120;53.250;8.702;2022-07-09T09:16:15;18.30;99.90
41965;DHT22;50120;53.250;8.702;2022-07-09T09:18:50;18.40;99.90
41965;DHT22;50120;53.250;8.702;2022-07-09T09:21:20;18.60;99.90
41965;DHT22;50120;53.250;8.702;2022-07-09T09:23:54;18.70;99.90
41965;DHT22;50120;53.250;8.702;2022-07-09T09:26:29;18.80;99.90
41965;DHT22;50120;53.250;8.702;2022-07-09T09:28:59;18.80;99.90
41965;DHT22;50120;53.250;8.702;2022-07-09T09:31:28;18.80;99.90
41965;DHT22;50120;53.250;8.702;2022-07-09T09:33:56;18.80;99.90
41965;DHT22;50120;53.250;8.702;2022-07-09T09:36:27;18.80;99.90
41965;DHT22;50120;53.250;8.702;2022-07-09T09:38:53;19.00;99.90
41965;DHT22;50120;53.250;8.702;2022-07-09T09:41:22;19.20;99.90
41965;DHT22;50120;53.250;8.702;2022-07-09T09:43:49;19.20;99.90
41965;DHT22;50120;53.250;8.702;2022-07-09T09:46:18;19.10;99.90
41965;DHT22;50120;53.250;8.702;2022-07-09T09:48:44;19.00;99.90
41965;DHT22;50120;53.250;8.702;2022-07-09T09:51:10;18.90;99.90
41965;DHT22;50120;53.250;8.702;2022-07-09T09:53:40;18.80;99.90
41965;DHT22;50120;53.250;8.702;2022-07-09T09:56:08;18.70;99.90
41965;DHT22;50120;53.250;8.702;2022-07-09T09:58:35;18.50;99.90
41965;DHT22;50120;53.250;8.702;2022-07-09T10:01:02;18.30;99.90
41965;DHT22;50120;53.250;8.702;2022-07-09T10:03:27;18.20;99.90
41965;DHT22;50120;53.250;8.702;2022-07-09T10:05:56;18.20;99.90
41965;DHT22;50120;53.250;8.702;2022-07-09T10:08:22;18.10;99.90
41965;DHT22;50120;53.250;8.702;2022-07-09T10:10:52;18.10;99.90
41965;DHT22;50120;53.250;8.702;2022-07-09T10:13:21;18.10;99.90
41965;DHT22;50120;53.250;8.702;2022-07-09T10:15:50;18.20;99.90
41965;DHT22;50120;53.250;8.702;2022-07-09T10:18:19;18.30;99.90
41965;DHT22;50120;53.250;8.702;2022-07-09T10:20:45;18.40;99.90
41965;DHT22;50120;53.250;8.702;2022-07-09T10:23:23;18.40;99.90
41965;DHT22;50120;53.250;8.702;2022-07-09T10:25:50;18.40;99.90
41965;DHT22;50120;53.250;8.702;2022-07-09T10:28:19;18.40;99.90
41965;DHT22;50120;53.250;8.702;2022-07-09T10:30:46;18.60;99.90
41965;DHT22;50120;53.250;8.702;2022-07-09T10:33:19;18.80;99.90
41965;DHT22;50120;53.250;8.702;2022-07-09T10:35:50;19.00;99.90
41965;DHT22;50120;53.250;8.702;2022-07-09T10:38:34;19.10;99.90
41965;DHT22;50120;53.250;8.702;2022-07-09T10:41:00;19.30;99.90
41965;DHT22;50120;53.250;8.702;2022-07-09T10:46:13;19.70;99.90
41965;DHT22;50120;53.250;8.702;2022-07-09T10:48:40;19.70;99.90
41965;DHT22;50120;53.250;8.702;2022-07-09T10:51:06;19.60;99.90
41965;DHT22;50120;53.250;8.702;2022-07-09T10:53:32;19.40;99.90
41965;DHT22;50120;53.250;8.702;2022-07-09T10:55:58;19.30;99.90
41965;DHT22;50120;53.250;8.702;2022-07-09T10:58:25;19.30;99.90
41965;DHT22;50120;53.250;8.702;2022-07-09T11:01:10;19.40;99.90
41965;DHT22;50120;53.250;8.702;2022-07-09T11:03:35;19.50;99.90
41965;DHT22;50120;53.250;8.702;2022-07-09T11:06:01;19.50;99.90
41965;DHT22;50120;53.250;8.702;2022-07-09T11:08:27;19.70;99.90
41965;DHT22;50120;53.250;8.702;2022-07-09T11:10:53;19.90;99.90
41965;DHT22;50120;53.250;8.702;2022-07-09T11:13:23;19.70;99.90
41965;DHT22;50120;53.250;8.702;2022-07-09T11:15:50;19.40;99.90
41965;DHT22;50120;53.250;8.702;2022-07-09T11:18:16;19.40;99.90
41965;DHT22;50120;53.250;8.702;2022-07-09T11:20:43;19.50;99.90
41965;DHT22;50120;53.250;8.702;2022-07-09T11:23:14;19.70;99.90
41965;DHT22;50120;53.250;8.702;2022-07-09T11:25:41;19.80;99.90
41965;DHT22;50120;53.250;8.702;2022-07-09T11:28:07;19.70;99.90
41965;DHT22;50120;53.250;8.702;2022-07-09T11:30:33;19.60;99.90
41965;DHT22;50120;53.250;8.702;2022-07-09T11:32:59;19.50;99.90
41965;DHT22;50120;53.250;8.702;2022-07-09T11:35:26;19.40;99.90
41965;DHT22;50120;53.250;8.702;2022-07-09T11:37:53;19.30;99.90
41965;DHT22;50120;53.250;8.702;2022-07-09T11:40:19;19.10;99.90
41965;DHT22;50120;53.250;8.702;2022-07-09T11:42:45;18.90;99.90
41965;DHT22;50120;53.250;8.702;2022-07-09T11:45:11;18.70;99.90
41965;DHT22;50120;53.250;8.702;2022-07-09T11:47:38;18.50;99.90
41965;DHT22;50120;53.250;8.702;2022-07-09T11:50:10;18.40;99.90
41965;DHT22;50120;53.250;8.702;2022-07-09T11:52:42;18.30;99.90
41965;DHT22;50120;53.250;8.702;2022-07-09T11:55:10;18.10;99.90
41965;DHT22;50120;53.250;8.702;2022-07-09T11:57:37;18.30;99.90
41965;DHT22;50120;53.250;8.702;2022-07-09T12:00:05;18.50;99.90
41965;DHT22;50120;53.250;8.702;2022-07-09T12:02:34;18.80;99.90
41965;DHT22;50120;53.250;8.702;2022-07-09T12:05:02;18.90;99.90
41965;DHT22;50120;53.250;8.702;2022-07-09T12:07:32;18.80;99.90
41965;DHT22;50120;53.250;8.702;2022-07-09T12:09:59;18.90;99.90
41965;DHT22;50120;53.250;8.702;2022-07-09T12:12:26;19.00;99.90
41965;DHT22;50120;53.250;8.702;2022-07-09T12:14:52;18.60;99.90
41965;DHT22;50120;53.250;8.702;2022-07-09T12:17:19;18.40;99.90
41965;DHT22;50120;53.250;8.702;2022-07-09T12:19:45;18.30;99.90
41965;DHT22;50120;53.250;8.702;2022-07-09T12:22:10;18.20;99.90
41965;DHT22;50120;53.250;8.702;2022-07-09T12:24:36;18.20;99.90
41965;DHT22;50120;53.250;8.702;2022-07-09T12:27:03;18.40;99.90
41965;DHT22;50120;53.250;8.702;2022-07-09T12:29:28;18.60;99.90
41965;DHT22;50120;53.250;8.702;2022-07-09T12:31:54;18.50;99.90
41965;DHT22;50120;53.250;8.702;2022-07-09T12:34:20;18.30;99.90
41965;DHT22;50120;53.250;8.702;2022-07-09T12:36:46;18.30;99.90
41965;DHT22;50120;53.250;8.702;2022-07-09T12:39:11;18.30;99.90
41965;DHT22;50120;53.250;8.702;2022-07-09T12:41:37;18.50;99.90
41965;DHT22;50120;53.250;8.702;2022-07-09T12:44:03;18.60;99.90
41965;DHT22;50120;53.250;8.702;2022-07-09T12:46:29;18.50;99.90
41965;DHT22;50120;53.250;8.702;2022-07-09T12:48:55;18.30;99.90
41965;DHT22;50120;53.250;8.702;2022-07-09T12:51:21;18.30;99.90
41965;DHT22;50120;53.250;8.702;2022-07-09T12:53:46;18.40;99.90
41965;DHT22;50120;53.250;8.702;2022-07-09T12:56:12;18.50;99.90
41965;DHT22;50120;53.250;8.702;2022-07-09T12:58:38;18.40;99.90
41965;DHT22;50120;53.250;8.702;2022-07-09T13:01:03;18.40;99.90
41965;DHT22;50120;53.250;8.702;2022-07-09T13:03:29;18.50;99.90
41965;DHT22;50120;53.250;8.702;2022-07-09T13:05:55;18.60;99.90
41965;DHT22;50120;53.250;8.702;2022-07-09T13:08:21;18.60;99.90
41965;DHT22;50120;53.250;8.702;2022-07-09T13:10:47;18.70;99.90
41965;DHT22;50120;53.250;8.702;2022-07-09T13:13:12;18.80;99.90
41965;DHT22;50120;53.250;8.702;2022-07-09T13:15:38;18.90;99.90
41965;DHT22;50120;53.250;8.702;2022-07-09T13:18:04;19.00;99.90
41965;DHT22;50120;53.250;8.702;2022-07-09T13:20:30;19.00;99.90
41965;DHT22;50120;53.250;8.702;2022-07-09T13:22:56;18.90;99.90
41965;DHT22;50120;53.250;8.702;2022-07-09T13:25:21;19.00;99.90
41965;DHT22;50120;53.250;8.702;2022-07-09T13:27:47;18.70;99.90
41965;DHT22;50120;53.250;8.702;2022-07-09T13:30:13;18.80;99.90
41965;DHT22;50120;53.250;8.702;2022-07-09T13:32:38;18.90;99.90
41965;DHT22;50120;53.250;8.702;2022-07-09T13:35:04;19.10;99.90
41965;DHT22;50120;53.250;8.702;2022-07-09T13:37:30;19.30;99.90
41965;DHT22;50120;53.250;8.702;2022-07-09T13:39:56;19.10;99.90
41965;DHT22;50120;53.250;8.702;2022-07-09T13:42:22;19.00;99.90
41965;DHT22;50120;53.250;8.702;2022-07-09T13:44:48;19.00;99.90
41965;DHT22;50120;53.250;8.702;2022-07-09T13:47:14;19.00;99.90
41965;DHT22;50120;53.250;8.702;2022-07-09T13:49:40;18.90;99.90
41965;DHT22;50120;53.250;8.702;2022-07-09T13:52:06;18.60;99.90
41965;DHT22;50120;53.250;8.702;2022-07-09T13:54:31;18.60;99.90
41965;DHT22;50120;53.250;8.702;2022-07-09T13:56:57;18.90;99.90
41965;DHT22;50120;53.250;8.702;2022-07-09T13:59:23;18.90;99.90
41965;DHT22;50120;53.250;8.702;2022-07-09T14:01:49;19.00;99.90
41965;DHT22;50120;53.250;8.702;2022-07-09T14:04:16;18.70;99.90
41965;DHT22;50120;53.250;8.702;2022-07-09T14:06:42;18.50;99.90
41965;DHT22;50120;53.250;8.702;2022-07-09T14:09:09;18.50;99.90
41965;DHT22;50120;53.250;8.702;2022-07-09T14:11:35;18.50;99.90
41965;DHT22;50120;53.250;8.702;2022-07-09T14:14:00;18.50;99.90
41965;DHT22;50120;53.250;8.702;2022-07-09T14:16:26;18.50;99.90
41965;DHT22;50120;53.250;8.702;2022-07-09T14:18:52;18.50;99.90
41965;DHT22;50120;53.250;8.702;2022-07-09T14:21:21;18.50;99.90
41965;DHT22;50120;53.250;8.702;2022-07-09T14:23:47;18.50;99.90
41965;DHT22;50120;53.250;8.702;2022-07-09T14:26:17;18.40;99.90
41965;DHT22;50120;53.250;8.702;2022-07-09T14:28:43;18.30;99.90
41965;DHT22;50120;53.250;8.702;2022-07-09T14:31:08;18.30;99.90
41965;DHT22;50120;53.250;8.702;2022-07-09T14:33:34;18.30;99.90
41965;DHT22;50120;53.250;8.702;2022-07-09T14:36:00;18.30;99.90
41965;DHT22;50120;53.250;8.702;2022-07-09T14:38:25;18.20;99.90
41965;DHT22;50120;53.250;8.702;2022-07-09T14:40:51;18.00;99.90
41965;DHT22;50120;53.250;8.702;2022-07-09T14:43:17;18.00;99.90
41965;DHT22;50120;53.250;8.702;2022-07-09T14:45:42;18.00;99.90
41965;DHT22;50120;53.250;8.702;2022-07-09T14:48:08;17.90;99.90
41965;DHT22;50120;53.250;8.702;2022-07-09T14:50:35;17.80;99.90
41965;DHT22;50120;53.250;8.702;2022-07-09T14:53:01;17.80;99.90
41965;DHT22;50120;53.250;8.702;2022-07-09T14:55:31;17.70;99.90
41965;DHT22;50120;53.250;8.702;2022-07-09T14:57:58;17.60;99.90
41965;DHT22;50120;53.250;8.702;2022-07-09T15:00:24;17.50;99.90
41965;DHT22;50120;53.250;8.702;2022-07-09T15:02:50;17.50;99.90
41965;DHT22;50120;53.250;8.702;2022-07-09T15:05:15;17.50;99.90
41965;DHT22;50120;53.250;8.702;2022-07-09T15:07:43;17.50;99.90
41965;DHT22;50120;53.250;8.702;2022-07-09T15:10:08;17.40;99.90
41965;DHT22;50120;53.250;8.702;2022-07-09T15:12:34;17.40;99.90
41965;DHT22;50120;53.250;8.702;2022-07-09T15:15:00;17.30;99.90
41965;DHT22;50120;53.250;8.702;2022-07-09T15:17:26;17.40;99.90
41965;DHT22;50120;53.250;8.702;2022-07-09T15:19:52;17.30;99.90
41965;DHT22;50120;53.250;8.702;2022-07-09T15:22:17;17.20;99.90
41965;DHT22;50120;53.250;8.702;2022-07-09T15:24:43;17.30;99.90
41965;DHT22;50120;53.250;8.702;2022-07-09T15:27:09;17.20;99.90
41965;DHT22;50120;53.250;8.702;2022-07-09T15:29:34;17.30;99.90